Main page
METAR-TAF:

METAR-TAF

Airports :

Lawrence Municipal Airport

Lawrence, Kansas, United States

latitude: 39-00-30N, longitude: 095-12-42W, elevation: 830 ft

Current weather observation

The report was made 15 minutes ago, at 16:52 UTC
Wind 13 mph from the North/Northwest with gusts up to 20 mph
Temperature 39°F
Humidity 81%
Pressure 30.25 in. Hg
Visibility: 10 miles
Scattered clouds at a height of 2100 ft

METAR: KLWC 201652Z AUTO 34011G17KT 10SM SCT021 04/01 A3025 RMK AO1 SLP248 T00440006

Time: 12:07 (17:07 UTC)


TAF: missing

Weather observations and forecasts of more than 4000 airports (METAR and TAF reports).

The available stations are represented by yellow and red dots on the map.

Hover mouse over dot to see the name of the station.

Then click to see weather observations and forecasts.

To change the map : click on the green buttons with a black cross to zoom in, on the green button with a dash to zoom out, or on the green arrows for adjacent maps.


METAR-TAF: